sensor_id;sensor_type;location;lat;lon;timestamp;pressure;altitude;pressure_sealevel;temperature;humidity
24154;BME280;12312;53.362;-1.518;2022-11-25T00:01:24;97356.78;;;6.38;100.00
24154;BME280;12312;53.362;-1.518;2022-11-25T00:03:52;97363.72;;;6.39;100.00
24154;BME280;12312;53.362;-1.518;2022-11-25T00:08:53;97355.88;;;6.28;100.00
24154;BME280;12312;53.362;-1.518;2022-11-25T00:11:19;97330.44;;;6.27;100.00
24154;BME280;12312;53.362;-1.518;2022-11-25T00:13:45;97355.56;;;6.21;100.00
24154;BME280;12312;53.362;-1.518;2022-11-25T00:16:15;97345.28;;;6.18;100.00
24154;BME280;12312;53.362;-1.518;2022-11-25T00:18:45;97331.47;;;6.15;100.00
24154;BME280;12312;53.362;-1.518;2022-11-25T00:21:13;97334.38;;;6.12;100.00
24154;BME280;12312;53.362;-1.518;2022-11-25T00:23:39;97339.66;;;6.12;100.00
24154;BME280;12312;53.362;-1.518;2022-11-25T00:26:15;97333.41;;;6.13;100.00
24154;BME280;12312;53.362;-1.518;2022-11-25T00:28:44;97344.94;;;6.12;100.00
24154;BME280;12312;53.362;-1.518;2022-11-25T00:31:18;97338.44;;;6.16;100.00
24154;BME280;12312;53.362;-1.518;2022-11-25T00:33:45;97339.13;;;6.18;100.00
24154;BME280;12312;53.362;-1.518;2022-11-25T00:36:22;97342.25;;;6.23;100.00
24154;BME280;12312;53.362;-1.518;2022-11-25T00:38:52;97342.53;;;6.29;100.00
24154;BME280;12312;53.362;-1.518;2022-11-25T00:41:19;97326.69;;;6.29;100.00
24154;BME280;12312;53.362;-1.518;2022-11-25T00:44:03;97345.03;;;6.31;100.00
24154;BME280;12312;53.362;-1.518;2022-11-25T00:46:47;97339.22;;;6.37;100.00
24154;BME280;12312;53.362;-1.518;2022-11-25T00:49:12;97340.22;;;6.36;100.00
24154;BME280;12312;53.362;-1.518;2022-11-25T00:51:39;97348.13;;;6.36;100.00
24154;BME280;12312;53.362;-1.518;2022-11-25T00:54:05;97356.78;;;6.38;100.00
24154;BME280;12312;53.362;-1.518;2022-11-25T00:56:31;97353.56;;;6.34;100.00
24154;BME280;12312;53.362;-1.518;2022-11-25T00:58:57;97357.59;;;6.38;100.00
24154;BME280;12312;53.362;-1.518;2022-11-25T01:01:23;97359.84;;;6.43;100.00
24154;BME280;12312;53.362;-1.518;2022-11-25T01:03:50;97340.41;;;6.44;100.00
24154;BME280;12312;53.362;-1.518;2022-11-25T01:06:18;97380.59;;;6.47;100.00
24154;BME280;12312;53.362;-1.518;2022-11-25T01:08:46;97367.38;;;6.47;100.00
24154;BME280;12312;53.362;-1.518;2022-11-25T01:11:16;97377.13;;;6.47;100.00
24154;BME280;12312;53.362;-1.518;2022-11-25T01:13:42;97390.47;;;6.45;100.00
24154;BME280;12312;53.362;-1.518;2022-11-25T01:16:10;97380.03;;;6.44;100.00
24154;BME280;12312;53.362;-1.518;2022-11-25T01:18:36;97393.25;;;6.44;100.00
24154;BME280;12312;53.362;-1.518;2022-11-25T01:21:14;97410.88;;;6.43;100.00
24154;BME280;12312;53.362;-1.518;2022-11-25T01:23:40;97404.88;;;6.41;100.00
24154;BME280;12312;53.362;-1.518;2022-11-25T01:26:10;97395.63;;;6.47;100.00
24154;BME280;12312;53.362;-1.518;2022-11-25T01:28:36;97398.25;;;6.47;100.00
24154;BME280;12312;53.362;-1.518;2022-11-25T01:31:14;97413.84;;;6.50;100.00
24154;BME280;12312;53.362;-1.518;2022-11-25T01:33:41;97431.38;;;6.51;100.00
24154;BME280;12312;53.362;-1.518;2022-11-25T01:36:10;97450.72;;;6.51;100.00
24154;BME280;12312;53.362;-1.518;2022-11-25T01:38:37;97444.59;;;6.51;100.00
24154;BME280;12312;53.362;-1.518;2022-11-25T01:41:04;97455.88;;;6.53;100.00
24154;BME280;12312;53.362;-1.518;2022-11-25T01:43:30;97458.66;;;6.51;100.00
24154;BME280;12312;53.362;-1.518;2022-11-25T01:46:17;97474.63;;;6.50;100.00
24154;BME280;12312;53.362;-1.518;2022-11-25T01:48:58;97474.16;;;6.45;100.00
24154;BME280;12312;53.362;-1.518;2022-11-25T01:51:50;97477.25;;;6.50;100.00
24154;BME280;12312;53.362;-1.518;2022-11-25T01:54:15;97493.13;;;6.50;100.00
24154;BME280;12312;53.362;-1.518;2022-11-25T01:57:03;97505.03;;;6.44;100.00
24154;BME280;12312;53.362;-1.518;2022-11-25T01:59:33;97523.38;;;6.46;100.00
24154;BME280;12312;53.362;-1.518;2022-11-25T02:02:01;97524.81;;;6.50;100.00
24154;BME280;12312;53.362;-1.518;2022-11-25T02:04:31;97529.84;;;6.53;100.00
24154;BME280;12312;53.362;-1.518;2022-11-25T02:07:03;97543.25;;;6.61;100.00
24154;BME280;12312;53.362;-1.518;2022-11-25T02:09:30;97544.44;;;6.68;100.00
24154;BME280;12312;53.362;-1.518;2022-11-25T02:11:58;97564.59;;;6.69;100.00
24154;BME280;12312;53.362;-1.518;2022-11-25T02:14:25;97565.56;;;6.68;100.00
24154;BME280;12312;53.362;-1.518;2022-11-25T02:16:51;97581.19;;;6.71;100.00
24154;BME280;12312;53.362;-1.518;2022-11-25T02:19:23;97585.88;;;6.67;100.00
24154;BME280;12312;53.362;-1.518;2022-11-25T02:21:57;97591.75;;;6.71;100.00
24154;BME280;12312;53.362;-1.518;2022-11-25T02:24:32;97590.78;;;6.72;100.00
24154;BME280;12312;53.362;-1.518;2022-11-25T02:26:59;97598.44;;;6.75;100.00
24154;BME280;12312;53.362;-1.518;2022-11-25T02:29:29;97601.09;;;6.75;100.00
24154;BME280;12312;53.362;-1.518;2022-11-25T02:31:55;97599.38;;;6.85;100.00
24154;BME280;12312;53.362;-1.518;2022-11-25T02:34:20;97610.91;;;6.84;100.00
24154;BME280;12312;53.362;-1.518;2022-11-25T02:36:46;97626.63;;;6.85;100.00
24154;BME280;12312;53.362;-1.518;2022-11-25T02:39:12;97633.28;;;6.80;100.00
24154;BME280;12312;53.362;-1.518;2022-11-25T02:41:45;97642.75;;;6.82;100.00
24154;BME280;12312;53.362;-1.518;2022-11-25T02:44:13;97642.75;;;6.82;100.00
24154;BME280;12312;53.362;-1.518;2022-11-25T02:46:39;97641.94;;;6.82;100.00
24154;BME280;12312;53.362;-1.518;2022-11-25T02:49:04;97631.66;;;6.88;100.00
24154;BME280;12312;53.362;-1.518;2022-11-25T02:51:31;97676.06;;;6.85;100.00
24154;BME280;12312;53.362;-1.518;2022-11-25T02:53:56;97671.47;;;6.87;100.00
24154;BME280;12312;53.362;-1.518;2022-11-25T02:56:24;97694.81;;;6.82;100.00
24154;BME280;12312;53.362;-1.518;2022-11-25T02:58:50;97695.47;;;6.63;100.00
24154;BME280;12312;53.362;-1.518;2022-11-25T03:01:16;97682.38;;;6.62;100.00
24154;BME280;12312;53.362;-1.518;2022-11-25T03:03:42;97690.56;;;6.48;100.00
24154;BME280;12312;53.362;-1.518;2022-11-25T03:06:09;97692.72;;;6.43;100.00
24154;BME280;12312;53.362;-1.518;2022-11-25T03:08:35;97705.81;;;6.44;100.00
24154;BME280;12312;53.362;-1.518;2022-11-25T03:11:01;97719.75;;;6.35;100.00
24154;BME280;12312;53.362;-1.518;2022-11-25T03:13:26;97726.38;;;6.41;100.00
24154;BME280;12312;53.362;-1.518;2022-11-25T03:15:52;97741.03;;;6.45;100.00
24154;BME280;12312;53.362;-1.518;2022-11-25T03:18:18;97760.94;;;6.49;100.00
24154;BME280;12312;53.362;-1.518;2022-11-25T03:20:44;97757.94;;;6.53;100.00
24154;BME280;12312;53.362;-1.518;2022-11-25T03:23:09;97773.53;;;6.56;100.00
24154;BME280;12312;53.362;-1.518;2022-11-25T03:25:35;97775.56;;;6.64;100.00
24154;BME280;12312;53.362;-1.518;2022-11-25T03:28:02;97784.22;;;6.66;100.00
24154;BME280;12312;53.362;-1.518;2022-11-25T03:30:29;97791.91;;;6.69;100.00
24154;BME280;12312;53.362;-1.518;2022-11-25T03:32:56;97803.94;;;6.62;100.00
24154;BME280;12312;53.362;-1.518;2022-11-25T03:35:22;97809.69;;;6.67;100.00
24154;BME280;12312;53.362;-1.518;2022-11-25T03:37:48;97815.59;;;6.70;100.00
24154;BME280;12312;53.362;-1.518;2022-11-25T03:40:14;97821.47;;;6.74;100.00
24154;BME280;12312;53.362;-1.518;2022-11-25T03:42:40;97817.16;;;6.73;100.00
24154;BME280;12312;53.362;-1.518;2022-11-25T03:45:07;97835.44;;;6.76;100.00
24154;BME280;12312;53.362;-1.518;2022-11-25T03:47:34;97836.97;;;6.67;100.00
24154;BME280;12312;53.362;-1.518;2022-11-25T03:50:00;97845.75;;;6.68;100.00
24154;BME280;12312;53.362;-1.518;2022-11-25T03:52:25;97844.66;;;6.70;100.00
24154;BME280;12312;53.362;-1.518;2022-11-25T03:54:51;97851.03;;;6.68;100.00
24154;BME280;12312;53.362;-1.518;2022-11-25T03:57:17;97848.63;;;6.65;100.00
24154;BME280;12312;53.362;-1.518;2022-11-25T03:59:43;97863.03;;;6.72;100.00
24154;BME280;12312;53.362;-1.518;2022-11-25T04:02:09;97868.09;;;6.75;100.00
24154;BME280;12312;53.362;-1.518;2022-11-25T04:04:35;97882.53;;;6.71;100.00
24154;BME280;12312;53.362;-1.518;2022-11-25T04:07:00;97892.84;;;6.74;100.00
24154;BME280;12312;53.362;-1.518;2022-11-25T04:09:26;97910.88;;;6.69;100.00
24154;BME280;12312;53.362;-1.518;2022-11-25T04:11:51;97917.47;;;6.63;100.00
24154;BME280;12312;53.362;-1.518;2022-11-25T04:14:36;97928.88;;;6.64;100.00
24154;BME280;12312;53.362;-1.518;2022-11-25T04:17:01;97928.88;;;6.64;100.00
24154;BME280;12312;53.362;-1.518;2022-11-25T04:19:27;97928.75;;;6.65;100.00
24154;BME280;12312;53.362;-1.518;2022-11-25T04:21:53;97937.31;;;6.69;100.00
24154;BME280;12312;53.362;-1.518;2022-11-25T04:24:19;97949.56;;;6.70;100.00
24154;BME280;12312;53.362;-1.518;2022-11-25T04:26:45;97951.97;;;6.62;100.00
24154;BME280;12312;53.362;-1.518;2022-11-25T04:29:10;97963.97;;;6.66;100.00
24154;BME280;12312;53.362;-1.518;2022-11-25T04:31:36;97962.28;;;6.65;100.00
24154;BME280;12312;53.362;-1.518;2022-11-25T04:34:03;97968.06;;;6.59;100.00
24154;BME280;12312;53.362;-1.518;2022-11-25T04:36:29;97986.69;;;6.68;100.00
24154;BME280;12312;53.362;-1.518;2022-11-25T04:38:55;97979.72;;;6.67;100.00
24154;BME280;12312;53.362;-1.518;2022-11-25T04:41:21;97990.25;;;6.56;100.00
24154;BME280;12312;53.362;-1.518;2022-11-25T04:43:47;98010.81;;;6.53;100.00
24154;BME280;12312;53.362;-1.518;2022-11-25T04:46:16;98010.09;;;6.62;100.00
24154;BME280;12312;53.362;-1.518;2022-11-25T04:48:43;98012.88;;;6.60;100.00
24154;BME280;12312;53.362;-1.518;2022-11-25T04:51:09;98016.56;;;6.58;100.00
24154;BME280;12312;53.362;-1.518;2022-11-25T04:53:36;98021.72;;;6.59;100.00
24154;BME280;12312;53.362;-1.518;2022-11-25T04:56:01;98027.47;;;6.53;100.00
24154;BME280;12312;53.362;-1.518;2022-11-25T04:58:27;98036.53;;;6.62;100.00
24154;BME280;12312;53.362;-1.518;2022-11-25T05:01:11;98045.75;;;6.56;100.00
24154;BME280;12312;53.362;-1.518;2022-11-25T05:03:36;98060.00;;;6.43;100.00
24154;BME280;12312;53.362;-1.518;2022-11-25T05:06:06;98056.44;;;6.55;100.00
24154;BME280;12312;53.362;-1.518;2022-11-25T05:08:32;98072.50;;;6.41;100.00
24154;BME280;12312;53.362;-1.518;2022-11-25T05:10:58;98072.75;;;6.49;100.00
24154;BME280;12312;53.362;-1.518;2022-11-25T05:13:24;98080.56;;;6.50;100.00
24154;BME280;12312;53.362;-1.518;2022-11-25T05:15:50;98087.00;;;6.35;100.00
24154;BME280;12312;53.362;-1.518;2022-11-25T05:18:15;98094.56;;;6.40;100.00
24154;BME280;12312;53.362;-1.518;2022-11-25T05:20:42;98108.69;;;6.51;100.00
24154;BME280;12312;53.362;-1.518;2022-11-25T05:23:07;98105.94;;;6.53;100.00
24154;BME280;12312;53.362;-1.518;2022-11-25T05:25:33;98121.41;;;6.46;100.00
24154;BME280;12312;53.362;-1.518;2022-11-25T05:27:59;98104.91;;;6.43;100.00
24154;BME280;12312;53.362;-1.518;2022-11-25T05:30:25;98111.47;;;6.50;100.00
24154;BME280;12312;53.362;-1.518;2022-11-25T05:32:50;98123.81;;;6.49;100.00
24154;BME280;12312;53.362;-1.518;2022-11-25T05:35:17;98132.81;;;6.47;100.00
24154;BME280;12312;53.362;-1.518;2022-11-25T05:37:43;98133.06;;;6.44;100.00
24154;BME280;12312;53.362;-1.518;2022-11-25T05:40:09;98145.66;;;6.28;100.00
24154;BME280;12312;53.362;-1.518;2022-11-25T05:42:35;98144.75;;;6.29;100.00
24154;BME280;12312;53.362;-1.518;2022-11-25T05:45:01;98151.69;;;6.30;100.00
24154;BME280;12312;53.362;-1.518;2022-11-25T05:47:26;98157.44;;;6.24;100.00
24154;BME280;12312;53.362;-1.518;2022-11-25T05:49:52;98170.75;;;6.22;100.00
24154;BME280;12312;53.362;-1.518;2022-11-25T05:52:18;98173.50;;;6.21;100.00
24154;BME280;12312;53.362;-1.518;2022-11-25T05:54:43;98175.09;;;6.11;100.00
24154;BME280;12312;53.362;-1.518;2022-11-25T05:57:09;98192.13;;;6.07;100.00
24154;BME280;12312;53.362;-1.518;2022-11-25T05:59:35;98188.06;;;6.14;100.00
24154;BME280;12312;53.362;-1.518;2022-11-25T06:02:00;98207.31;;;6.16;100.00
24154;BME280;12312;53.362;-1.518;2022-11-25T06:04:26;98205.63;;;6.15;100.00
24154;BME280;12312;53.362;-1.518;2022-11-25T06:06:52;98212.28;;;6.08;100.00
24154;BME280;12312;53.362;-1.518;2022-11-25T06:09:17;98213.47;;;6.04;100.00
24154;BME280;12312;53.362;-1.518;2022-11-25T06:11:43;98225.25;;;6.11;100.00
24154;BME280;12312;53.362;-1.518;2022-11-25T06:14:08;98228.88;;;6.10;100.00
24154;BME280;12312;53.362;-1.518;2022-11-25T06:16:34;98227.78;;;6.12;100.00
24154;BME280;12312;53.362;-1.518;2022-11-25T06:19:01;98224.22;;;6.13;100.00
24154;BME280;12312;53.362;-1.518;2022-11-25T06:21:31;98235.66;;;6.01;100.00
24154;BME280;12312;53.362;-1.518;2022-11-25T06:23:57;98233.34;;;5.97;100.00
24154;BME280;12312;53.362;-1.518;2022-11-25T06:26:22;98245.56;;;5.85;100.00
24154;BME280;12312;53.362;-1.518;2022-11-25T06:28:52;98246.16;;;5.76;100.00
24154;BME280;12312;53.362;-1.518;2022-11-25T06:31:20;98248.75;;;5.90;100.00
24154;BME280;12312;53.362;-1.518;2022-11-25T06:33:47;98266.16;;;6.18;100.00
24154;BME280;12312;53.362;-1.518;2022-11-25T06:36:14;98270.38;;;6.20;100.00
24154;BME280;12312;53.362;-1.518;2022-11-25T06:38:50;98283.16;;;6.14;100.00
24154;BME280;12312;53.362;-1.518;2022-11-25T06:41:16;98283.38;;;6.11;100.00
24154;BME280;12312;53.362;-1.518;2022-11-25T06:43:42;98286.66;;;6.14;100.00
24154;BME280;12312;53.362;-1.518;2022-11-25T06:46:15;98283.16;;;6.14;99.74
24154;BME280;12312;53.362;-1.518;2022-11-25T06:48:42;98301.34;;;6.06;99.94
24154;BME280;12312;53.362;-1.518;2022-11-25T06:51:13;98302.00;;;5.97;100.00
24154;BME280;12312;53.362;-1.518;2022-11-25T06:53:39;98319.28;;;6.01;100.00
24154;BME280;12312;53.362;-1.518;2022-11-25T06:58:34;98331.13;;;6.08;100.00
24154;BME280;12312;53.362;-1.518;2022-11-25T07:01:05;98338.31;;;6.06;100.00
24154;BME280;12312;53.362;-1.518;2022-11-25T07:03:31;98343.47;;;5.95;100.00
24154;BME280;12312;53.362;-1.518;2022-11-25T07:05:58;98348.00;;;5.93;100.00
24154;BME280;12312;53.362;-1.518;2022-11-25T07:08:25;98366.81;;;5.88;100.00
24154;BME280;12312;53.362;-1.518;2022-11-25T07:10:50;98366.00;;;6.13;100.00
24154;BME280;12312;53.362;-1.518;2022-11-25T07:13:17;98367.88;;;6.11;100.00
24154;BME280;12312;53.362;-1.518;2022-11-25T07:15:42;98375.50;;;6.03;99.47
24154;BME280;12312;53.362;-1.518;2022-11-25T07:18:08;98386.25;;;5.87;99.98
24154;BME280;12312;53.362;-1.518;2022-11-25T07:20:34;98385.19;;;5.90;99.91
24154;BME280;12312;53.362;-1.518;2022-11-25T07:22:59;98390.72;;;6.12;100.00
24154;BME280;12312;53.362;-1.518;2022-11-25T07:25:25;98405.91;;;5.96;100.00
24154;BME280;12312;53.362;-1.518;2022-11-25T07:27:50;98405.59;;;5.88;100.00
24154;BME280;12312;53.362;-1.518;2022-11-25T07:30:18;98402.94;;;5.88;100.00
24154;BME280;12312;53.362;-1.518;2022-11-25T07:33:09;98419.22;;;6.07;100.00
24154;BME280;12312;53.362;-1.518;2022-11-25T07:35:35;98421.31;;;6.02;100.00
24154;BME280;12312;53.362;-1.518;2022-11-25T07:38:00;98435.69;;;5.98;99.27
24154;BME280;12312;53.362;-1.518;2022-11-25T07:40:27;98437.16;;;6.02;100.00
24154;BME280;12312;53.362;-1.518;2022-11-25T07:42:53;98443.00;;;6.07;99.98
24154;BME280;12312;53.362;-1.518;2022-11-25T07:45:19;98454.94;;;6.00;100.00
24154;BME280;12312;53.362;-1.518;2022-11-25T07:47:45;98459.06;;;6.04;99.00
24154;BME280;12312;53.362;-1.518;2022-11-25T07:50:11;98466.94;;;5.91;99.95
24154;BME280;12312;53.362;-1.518;2022-11-25T07:52:38;98475.84;;;6.03;98.80
24154;BME280;12312;53.362;-1.518;2022-11-25T07:55:04;98477.53;;;6.04;98.89
24154;BME280;12312;53.362;-1.518;2022-11-25T07:57:30;98486.41;;;6.03;100.00
24154;BME280;12312;53.362;-1.518;2022-11-25T07:59:55;98499.53;;;6.04;100.00
24154;BME280;12312;53.362;-1.518;2022-11-25T08:02:21;98503.13;;;6.16;99.76
24154;BME280;12312;53.362;-1.518;2022-11-25T08:04:46;98502.38;;;6.14;97.77
24154;BME280;12312;53.362;-1.518;2022-11-25T08:07:12;98509.19;;;6.18;98.32
24154;BME280;12312;53.362;-1.518;2022-11-25T08:09:37;98518.78;;;6.19;97.57
24154;BME280;12312;53.362;-1.518;2022-11-25T08:12:03;98526.34;;;6.11;97.98
24154;BME280;12312;53.362;-1.518;2022-11-25T08:14:28;98522.59;;;6.15;98.26
24154;BME280;12312;53.362;-1.518;2022-11-25T08:16:54;98536.34;;;6.20;98.37
24154;BME280;12312;53.362;-1.518;2022-11-25T08:19:21;98542.66;;;6.17;98.24
24154;BME280;12312;53.362;-1.518;2022-11-25T08:21:46;98541.94;;;6.28;97.01
24154;BME280;12312;53.362;-1.518;2022-11-25T08:24:14;98545.16;;;6.33;97.32
24154;BME280;12312;53.362;-1.518;2022-11-25T08:26:40;98555.41;;;6.37;97.61
24154;BME280;12312;53.362;-1.518;2022-11-25T08:29:06;98560.66;;;6.25;97.54
24154;BME280;12312;53.362;-1.518;2022-11-25T08:31:34;98567.03;;;6.35;96.17
24154;BME280;12312;53.362;-1.518;2022-11-25T08:34:01;98560.25;;;6.31;95.97
24154;BME280;12312;53.362;-1.518;2022-11-25T08:36:28;98576.50;;;6.25;96.66
24154;BME280;12312;53.362;-1.518;2022-11-25T08:38:56;98583.72;;;6.35;96.41
24154;BME280;12312;53.362;-1.518;2022-11-25T08:41:26;98593.25;;;6.38;96.20
24154;BME280;12312;53.362;-1.518;2022-11-25T08:43:53;98591.66;;;6.35;96.00
24154;BME280;12312;53.362;-1.518;2022-11-25T08:46:22;98594.53;;;6.45;95.77
24154;BME280;12312;53.362;-1.518;2022-11-25T08:48:49;98611.06;;;6.48;95.84
24154;BME280;12312;53.362;-1.518;2022-11-25T08:51:20;98609.78;;;6.54;95.74
24154;BME280;12312;53.362;-1.518;2022-11-25T08:54:02;98604.31;;;6.57;95.15
24154;BME280;12312;53.362;-1.518;2022-11-25T08:56:29;98622.59;;;6.60;94.98
24154;BME280;12312;53.362;-1.518;2022-11-25T08:58:55;98623.16;;;6.65;96.30
24154;BME280;12312;53.362;-1.518;2022-11-25T09:01:22;98621.53;;;6.62;95.60
24154;BME280;12312;53.362;-1.518;2022-11-25T09:03:52;98633.94;;;6.62;95.15
24154;BME280;12312;53.362;-1.518;2022-11-25T09:06:20;98640.91;;;6.63;95.28
24154;BME280;12312;53.362;-1.518;2022-11-25T09:08:46;98632.00;;;6.64;95.38
24154;BME280;12312;53.362;-1.518;2022-11-25T09:11:13;98639.66;;;6.68;95.65
24154;BME280;12312;53.362;-1.518;2022-11-25T09:13:38;98640.19;;;6.73;95.24
24154;BME280;12312;53.362;-1.518;2022-11-25T09:16:04;98640.00;;;6.76;94.39
24154;BME280;12312;53.362;-1.518;2022-11-25T09:18:30;98647.63;;;6.81;94.23
24154;BME280;12312;53.362;-1.518;2022-11-25T09:20:58;98656.41;;;6.81;94.46
24154;BME280;12312;53.362;-1.518;2022-11-25T09:23:25;98651.56;;;6.88;94.61
24154;BME280;12312;53.362;-1.518;2022-11-25T09:25:56;98668.06;;;6.91;93.85
24154;BME280;12312;53.362;-1.518;2022-11-25T09:28:24;98671.75;;;6.89;94.20
24154;BME280;12312;53.362;-1.518;2022-11-25T09:30:50;98676.44;;;6.98;94.56
24154;BME280;12312;53.362;-1.518;2022-11-25T09:33:16;98685.84;;;7.02;93.19
24154;BME280;12312;53.362;-1.518;2022-11-25T09:35:42;98683.88;;;7.05;93.69
24154;BME280;12312;53.362;-1.518;2022-11-25T09:38:08;98702.41;;;7.18;94.68
24154;BME280;12312;53.362;-1.518;2022-11-25T09:44:18;98716.19;;;7.23;92.44
24154;BME280;12312;53.362;-1.518;2022-11-25T09:47:21;98722.19;;;7.12;93.87
24154;BME280;12312;53.362;-1.518;2022-11-25T09:53:09;98729.22;;;7.26;93.08
24154;BME280;12312;53.362;-1.518;2022-11-25T09:55:45;98737.66;;;7.18;93.57
24154;BME280;12312;53.362;-1.518;2022-11-25T09:58:40;98724.16;;;7.36;92.04
24154;BME280;12312;53.362;-1.518;2022-11-25T10:01:16;98734.66;;;7.50;93.47
24154;BME280;12312;53.362;-1.518;2022-11-25T10:04:04;98734.88;;;7.59;91.85
24154;BME280;12312;53.362;-1.518;2022-11-25T10:06:41;98731.69;;;7.54;90.45
24154;BME280;12312;53.362;-1.518;2022-11-25T10:09:17;98723.88;;;7.65;91.06
24154;BME280;12312;53.362;-1.518;2022-11-25T10:12:02;98743.34;;;7.64;91.71
24154;BME280;12312;53.362;-1.518;2022-11-25T10:14:43;98744.50;;;7.60;92.29
24154;BME280;12312;53.362;-1.518;2022-11-25T10:22:25;98762.59;;;7.54;92.56
24154;BME280;12312;53.362;-1.518;2022-11-25T10:25:27;98762.22;;;7.72;91.46
24154;BME280;12312;53.362;-1.518;2022-11-25T10:28:20;98779.81;;;7.73;89.69
24154;BME280;12312;53.362;-1.518;2022-11-25T10:31:17;98776.75;;;7.79;90.57
24154;BME280;12312;53.362;-1.518;2022-11-25T10:33:48;98781.28;;;7.77;90.81
24154;BME280;12312;53.362;-1.518;2022-11-25T10:36:27;98796.53;;;7.74;91.62
24154;BME280;12312;53.362;-1.518;2022-11-25T10:39:02;98787.66;;;7.87;91.35
24154;BME280;12312;53.362;-1.518;2022-11-25T10:41:43;98793.38;;;7.94;90.61
24154;BME280;12312;53.362;-1.518;2022-11-25T10:44:28;98787.44;;;7.90;90.69
24154;BME280;12312;53.362;-1.518;2022-11-25T10:47:04;98805.16;;;8.15;88.98
24154;BME280;12312;53.362;-1.518;2022-11-25T10:49:46;98810.13;;;8.19;87.41
24154;BME280;12312;53.362;-1.518;2022-11-25T10:52:12;98818.88;;;8.34;88.27
24154;BME280;12312;53.362;-1.518;2022-11-25T10:54:38;98833.59;;;8.50;86.84
24154;BME280;12312;53.362;-1.518;2022-11-25T10:57:26;98840.38;;;8.67;85.40
24154;BME280;12312;53.362;-1.518;2022-11-25T10:59:57;98845.13;;;8.49;87.64
24154;BME280;12312;53.362;-1.518;2022-11-25T11:02:26;98851.19;;;8.51;87.65
24154;BME280;12312;53.362;-1.518;2022-11-25T11:05:02;98859.16;;;8.51;87.58
24154;BME280;12312;53.362;-1.518;2022-11-25T11:07:30;98860.84;;;8.65;86.07
24154;BME280;12312;53.362;-1.518;2022-11-25T11:13:01;98869.00;;;8.74;85.62
24154;BME280;12312;53.362;-1.518;2022-11-25T11:17:58;98873.66;;;8.83;85.18
24154;BME280;12312;53.362;-1.518;2022-11-25T11:20:29;98869.66;;;9.14;83.03
24154;BME280;12312;53.362;-1.518;2022-11-25T11:23:01;98868.78;;;9.26;82.29
24154;BME280;12312;53.362;-1.518;2022-11-25T11:25:28;98885.97;;;9.21;82.53
24154;BME280;12312;53.362;-1.518;2022-11-25T11:27:54;98886.19;;;9.18;82.53
24154;BME280;12312;53.362;-1.518;2022-11-25T11:30:30;98879.72;;;9.22;81.05
24154;BME280;12312;53.362;-1.518;2022-11-25T11:33:00;98875.28;;;9.46;81.55
24154;BME280;12312;53.362;-1.518;2022-11-25T11:35:37;98889.53;;;9.45;80.15
24154;BME280;12312;53.362;-1.518;2022-11-25T11:38:33;98873.88;;;9.17;80.37
24154;BME280;12312;53.362;-1.518;2022-11-25T11:50:02;98888.38;;;10.07;77.85
24154;BME280;12312;53.362;-1.518;2022-11-25T11:52:57;98886.22;;;9.88;76.20
24154;BME280;12312;53.362;-1.518;2022-11-25T11:55:42;98896.06;;;10.33;76.09
24154;BME280;12312;53.362;-1.518;2022-11-25T12:06:35;98910.09;;;11.57;68.83
24154;BME280;12312;53.362;-1.518;2022-11-25T12:09:08;98925.03;;;11.37;70.10
24154;BME280;12312;53.362;-1.518;2022-11-25T12:11:40;98910.84;;;11.59;67.73
24154;BME280;12312;53.362;-1.518;2022-11-25T12:14:23;98922.56;;;11.78;68.05
24154;BME280;12312;53.362;-1.518;2022-11-25T12:16:56;98914.78;;;11.86;67.80
24154;BME280;12312;53.362;-1.518;2022-11-25T12:19:38;98928.44;;;11.06;71.32
24154;BME280;12312;53.362;-1.518;2022-11-25T12:22:10;98930.38;;;10.82;72.57
24154;BME280;12312;53.362;-1.518;2022-11-25T12:27:35;98941.53;;;11.42;71.73
24154;BME280;12312;53.362;-1.518;2022-11-25T12:30:12;98940.06;;;11.38;70.04
24154;BME280;12312;53.362;-1.518;2022-11-25T12:37:46;98943.91;;;10.79;73.62
24154;BME280;12312;53.362;-1.518;2022-11-25T12:43:20;98941.28;;;10.90;72.81
24154;BME280;12312;53.362;-1.518;2022-11-25T12:45:50;98946.81;;;10.76;72.44
24154;BME280;12312;53.362;-1.518;2022-11-25T12:48:18;98955.16;;;10.26;73.36
24154;BME280;12312;53.362;-1.518;2022-11-25T12:51:08;98953.31;;;9.92;75.95
24154;BME280;12312;53.362;-1.518;2022-11-25T12:56:18;98963.13;;;9.55;77.95
24154;BME280;12312;53.362;-1.518;2022-11-25T12:59:05;98967.34;;;9.22;81.91
24154;BME280;12312;53.362;-1.518;2022-11-25T13:07:26;98970.31;;;9.30;78.97
24154;BME280;12312;53.362;-1.518;2022-11-25T13:15:41;98978.78;;;9.22;84.76
24154;BME280;12312;53.362;-1.518;2022-11-25T13:18:18;98981.16;;;9.27;81.57
24154;BME280;12312;53.362;-1.518;2022-11-25T13:20:49;98974.75;;;9.17;81.21
24154;BME280;12312;53.362;-1.518;2022-11-25T13:25:43;98991.78;;;9.14;81.98
24154;BME280;12312;53.362;-1.518;2022-11-25T13:28:31;99006.19;;;9.23;81.48
24154;BME280;12312;53.362;-1.518;2022-11-25T13:36:21;99018.22;;;9.16;82.47
24154;BME280;12312;53.362;-1.518;2022-11-25T13:46:43;99031.66;;;9.38;80.55
24154;BME280;12312;53.362;-1.518;2022-11-25T13:51:50;99027.84;;;9.42;82.10
24154;BME280;12312;53.362;-1.518;2022-11-25T13:54:18;99035.94;;;9.40;82.20
24154;BME280;12312;53.362;-1.518;2022-11-25T13:57:16;99039.09;;;9.45;82.24
24154;BME280;12312;53.362;-1.518;2022-11-25T14:02:41;99042.28;;;9.38;81.66
24154;BME280;12312;53.362;-1.518;2022-11-25T14:10:48;99045.69;;;9.40;82.03
24154;BME280;12312;53.362;-1.518;2022-11-25T14:13:57;99046.78;;;9.37;82.45
24154;BME280;12312;53.362;-1.518;2022-11-25T14:22:30;99059.09;;;9.26;82.16
24154;BME280;12312;53.362;-1.518;2022-11-25T14:25:18;99073.75;;;9.19;83.31
24154;BME280;12312;53.362;-1.518;2022-11-25T14:27:47;99069.59;;;9.27;83.75
24154;BME280;12312;53.362;-1.518;2022-11-25T14:30:15;99079.59;;;9.11;84.45
24154;BME280;12312;53.362;-1.518;2022-11-25T14:32:47;99073.97;;;9.16;84.83
24154;BME280;12312;53.362;-1.518;2022-11-25T14:38:02;99062.59;;;9.14;84.72
24154;BME280;12312;53.362;-1.518;2022-11-25T14:40:44;99081.81;;;9.17;85.42
24154;BME280;12312;53.362;-1.518;2022-11-25T14:43:23;99084.16;;;9.09;85.80
24154;BME280;12312;53.362;-1.518;2022-11-25T14:46:13;99086.91;;;9.07;85.51
24154;BME280;12312;53.362;-1.518;2022-11-25T14:48:40;99074.06;;;9.14;84.94